Nearby METAR Reports

 

EGUW - Wattisham Raf, United Kingdom
Distance from station: SW 12mi, 19km
Updated: 18/06/2019 16:20
Light rain, Mostly cloudy
Light rain, Mostly cloudy
 Wind from NE
Wind: NE 3 mph , 6 km/h
Temperature: 17°C
Dew Point: 15°C
Humidity: 88%
Barometer: 1013 hPa
Summary: Light rain
Clouds: Mostly cloudy
Visibility: 6 miles , 10 km
Cloud details: Few Clouds 1372 m
Mostly cloudy 2438 m
2019/06/18 15:20 EGUW 181520Z 04003KT 9999 -RA FEW045 BKN080 17/15 Q1013 TEMPO 7000 RA RMK BLU TEMPO WHT
EGUL - Lakenheath Raf, United Kingdom
Distance from station: WNW 29mi, 47km
Updated: 18/06/2019 16:08
Light drizzle, Mostly cloudy
Light drizzle, Mostly cloudy
 Wind from S
Wind: S 3 mph , 6 km/h
Temperature: 19°C
Dew Point: 11°C
Humidity: 60%
Barometer: 1012.9 hPa
Summary: Light Drizzle
Clouds: Mostly cloudy
Visibility: 6 miles , 10 km
Cloud details: Partly cloudy 1006 m
Mostly cloudy 2438 m
2019/06/18 15:08 EGUL 181508Z 18003KT 9999 -DZ SCT033 BKN080 19/11 A2991 RMK AO2A DZB08 SLP132 $
 
EGUN - Mildenhall Raf, United Kingdom
Distance from station: WNW 32mi, 51km
Updated: 18/06/2019 15:59
Light rain, Mostly cloudy
Light rain, Mostly cloudy
 Wind from SE
Wind: SE 3 mph , 6 km/h
Temperature: 19°C
Dew Point: 14°C
Humidity: 73%
Barometer: 1012.9 hPa
Summary: Light rain
Clouds: Mostly cloudy
Visibility: 6 miles , 10 km
Cloud details: Mostly cloudy 2743 m
2019/06/18 14:59 EGUN 181459Z AUTO 14003KT 9999 -RA BKN090 19/14 A2991 RMK AO2 RAB59 SLP132 $
EGSH - Norwich Wea Cntr, United Kingdom
Distance from station: N 32mi, 52km
Updated: 18/06/2019 16:20
Light rain, Showers, Few clouds
Light rain, Showers, Few clouds
 Wind from S
Wind: S 6 mph , 9 km/h
Temperature: 19°C
Dew Point: 13°C
Humidity: 68%
Barometer: 1013 hPa
Summary: Light rain, Showers
Clouds: Few Clouds
Visibility: 6 miles , 10 km
Cloud details: Few Clouds 1036 m
2019/06/18 15:20 EGSH 181520Z 19005KT 160V230 9999 -SHRA FEW034 19/13 Q1013 NOSIG
 
EGYM - Marham Raf, United Kingdom
Distance from station: NW 39mi, 62km
Updated: 18/06/2019 15:50
Light rain, Overcast
Light rain, Overcast
 Wind from SSW
Wind: SSW 3 mph , 6 km/h
Temperature: 19°C
Dew Point: 11°C
Humidity: 60%
Barometer: 1013 hPa
Summary: Light rain
Clouds: Overcast
Visibility: 6 miles , 10 km
Cloud details: Few Clouds 1524 m
Partly cloudy 2438 m
Overcast 3353 m
2019/06/18 14:50 EGYM 181450Z 21003KT 9999 -RA FEW050 SCT080 OVC110 19/11 Q1013 TEMPO 7000 -SHRA RMK BLU TEMPO WHT
EGSC - Cambridge, United Kingdom
Distance from station: W 43mi, 69km
Updated: 18/06/2019 16:20
Nearby showers, Few clouds
Nearby showers, Few clouds
 Wind from varies
Wind: varies 2 mph , 4 km/h
Temperature: 19°C
Dew Point: 12°C
Humidity: 64%
Barometer: 1013 hPa
Summary: Nearby Showers
Clouds: Few Clouds
Visibility: 6 miles , 10 km
Cloud details: Few Clouds 1219 m
2019/06/18 15:20 EGSC 181520Z VRB02KT 9999 VCSH FEW040 19/12 Q1013
 
EGSS - Stansted Airport, United Kingdom
Distance from station: WSW 47mi, 76km
Updated: 18/06/2019 16:20
Light rain, Partly cloudy
Light rain, Partly cloudy
 Wind from varies
Wind: varies 3 mph , 6 km/h
Temperature: 18°C
Dew Point: 13°C
Humidity: 73%
Barometer: 1013 hPa
Summary: Light rain
Clouds: Partly cloudy
Visibility: 6 miles , 10 km
2019/06/18 15:20 EGSS 181520Z VRB03KT 9999 -RA NSC 18/13 Q1013
EGMC - Southend-On-Sea, United Kingdom
Distance from station: SSW 50mi, 80km
Updated: 18/06/2019 16:20
Light rain, Partly cloudy
Light rain, Partly cloudy
 Wind from E
Wind: E 7 mph , 11 km/h
Temperature: 18°C
Dew Point: 14°C
Humidity: 78%
Barometer: 1012 hPa
Summary: Light rain
Clouds: Partly cloudy
Visibility: 6 miles , 10 km
2019/06/18 15:20 EGMC 181520Z 08006KT 050V110 9999 -RA NSC 18/14 Q1012